createdAt,value
2023-08-06T00:00:52.814Z,98266.31
2023-08-06T00:03:39.555Z,98247.06
2023-08-06T00:06:26.161Z,98266.88
2023-08-06T00:09:12.823Z,98256.75
2023-08-06T00:11:58.984Z,98262.00
2023-08-06T00:14:46.033Z,98242.44
2023-08-06T00:17:32.627Z,98275.00
2023-08-06T00:20:19.161Z,98245.97
2023-08-06T00:23:05.568Z,98282.78
2023-08-06T00:25:52.032Z,98251.16
2023-08-06T00:28:38.430Z,98264.59
2023-08-06T00:31:25.164Z,98245.03
2023-08-06T00:34:11.778Z,98240.78
2023-08-06T00:36:58.135Z,98259.53
2023-08-06T00:39:45.490Z,98264.84
2023-08-06T00:42:31.762Z,98231.59
2023-08-06T00:45:18.317Z,98238.38
2023-08-06T00:48:06.326Z,98216.94
2023-08-06T00:50:53.335Z,98259.66
2023-08-06T00:53:40.946Z,98244.25
2023-08-06T00:56:27.700Z,98216.88
2023-08-06T00:59:14.356Z,98209.28
2023-08-06T01:02:00.507Z,98207.66
2023-08-06T01:04:46.996Z,98223.88
2023-08-06T01:07:52.552Z,98232.59
2023-08-06T01:11:16.627Z,98225.84
2023-08-06T01:14:19.415Z,98238.88
2023-08-06T01:17:06.077Z,98206.53
2023-08-06T01:19:52.393Z,98239.66
2023-08-06T01:22:38.790Z,98181.53
2023-08-06T01:25:34.333Z,98210.66
2023-08-06T01:28:42.405Z,98212.00
2023-08-06T01:31:32.658Z,98233.44
2023-08-06T01:34:23.499Z,98234.22
2023-08-06T01:41:41.825Z,98164.81
2023-08-06T01:44:28.289Z,98163.13
2023-08-06T01:47:14.549Z,98163.19
2023-08-06T01:50:01.665Z,98214.38
2023-08-06T01:52:48.262Z,98158.19
2023-08-06T01:55:34.491Z,98198.56
2023-08-06T01:58:21.030Z,98199.41
2023-08-06T02:01:07.256Z,98149.09
2023-08-06T02:03:53.505Z,98153.44
2023-08-06T02:06:40.037Z,98182.28
2023-08-06T02:09:27.510Z,98153.25
2023-08-06T02:12:14.134Z,98165.44
2023-08-06T02:15:00.532Z,98172.91
2023-08-06T02:17:47.131Z,98144.94
2023-08-06T02:20:33.622Z,98159.53
2023-08-06T02:23:21.273Z,98164.84
2023-08-06T02:26:07.654Z,98159.59
2023-08-06T02:28:53.863Z,98133.09
2023-08-06T02:31:40.295Z,98116.22
2023-08-06T02:34:26.663Z,98081.88
2023-08-06T02:37:13.163Z,98145.91
2023-08-06T02:39:59.691Z,98106.69
2023-08-06T02:42:46.047Z,98121.09
2023-08-06T02:45:32.637Z,98121.88
2023-08-06T02:48:19.462Z,98131.97
2023-08-06T02:51:06.125Z,98117.22
2023-08-06T02:53:53.561Z,98114.78
2023-08-06T02:56:45.754Z,98112.09
2023-08-06T02:59:38.702Z,98119.91
2023-08-06T03:02:29.761Z,98122.53
2023-08-06T03:05:28.450Z,98116.69
2023-08-06T03:08:14.940Z,98105.44
2023-08-06T03:11:01.393Z,98134.38
2023-08-06T03:13:48.795Z,98138.25
2023-08-06T03:16:36.295Z,98090.22
2023-08-06T03:19:22.893Z,98114.75
2023-08-06T03:22:09.381Z,98138.47
2023-08-06T03:24:57.098Z,98105.75
2023-08-06T03:27:45.504Z,98132.41
2023-08-06T03:30:34.102Z,98133.09
2023-08-06T03:33:21.173Z,98127.91
2023-08-06T03:36:08.244Z,98142.22
2023-08-06T03:38:55.693Z,98105.50
2023-08-06T03:41:42.463Z,98127.41
2023-08-06T03:44:29.413Z,98121.50
2023-08-06T03:47:16.125Z,98152.78
2023-08-06T03:50:03.490Z,98133.72
2023-08-06T03:52:51.184Z,98127.47
2023-08-06T03:55:37.559Z,98146.75
2023-08-06T03:58:24.283Z,98129.47
2023-08-06T04:01:10.726Z,98129.69
2023-08-06T04:04:04.357Z,98114.38
2023-08-06T04:06:50.600Z,98121.66
2023-08-06T04:09:56.475Z,98143.59
2023-08-06T04:12:43.284Z,98136.09
2023-08-06T04:15:29.351Z,98127.41
2023-08-06T04:18:17.887Z,98150.72
2023-08-06T04:21:04.551Z,98162.50
2023-08-06T04:23:51.181Z,98127.59
2023-08-06T04:26:39.240Z,98130.19
2023-08-06T04:29:25.409Z,98085.88
2023-08-06T04:32:14.142Z,98132.97
2023-08-06T04:35:06.026Z,98156.31
2023-08-06T04:37:52.864Z,98126.78
2023-08-06T04:40:39.245Z,98102.88
2023-08-06T04:43:25.626Z,98152.25
2023-08-06T04:46:12.522Z,98151.19
2023-08-06T04:48:58.735Z,98148.41
2023-08-06T04:51:45.167Z,98151.88
2023-08-06T04:54:31.725Z,98144.16
2023-08-06T04:57:17.913Z,98158.44
2023-08-06T05:00:05.797Z,98083.88
2023-08-06T05:02:52.358Z,98162.81
2023-08-06T05:05:41.476Z,98154.72
2023-08-06T05:08:27.792Z,98113.09
2023-08-06T05:11:14.328Z,98142.88
2023-08-06T05:14:00.624Z,98114.09
2023-08-06T05:16:47.152Z,98112.22
2023-08-06T05:19:33.414Z,98098.16
2023-08-06T05:22:20.208Z,98139.63
2023-08-06T05:25:07.631Z,98122.50
2023-08-06T05:27:54.410Z,98136.63
2023-08-06T05:30:41.608Z,98098.97
2023-08-06T05:33:28.158Z,98121.66
2023-08-06T05:36:14.858Z,98124.50
2023-08-06T05:39:01.061Z,98170.56
2023-08-06T05:41:47.448Z,98164.66
2023-08-06T05:44:34.041Z,98172.38
2023-08-06T05:47:20.793Z,98149.56
2023-08-06T05:50:08.206Z,98147.81
2023-08-06T05:52:54.672Z,98172.78
2023-08-06T05:55:41.202Z,98175.22
2023-08-06T05:58:30.167Z,98125.72
2023-08-06T06:01:16.879Z,98177.59
2023-08-06T06:04:03.600Z,98150.97
2023-08-06T06:06:49.847Z,98159.34
2023-08-06T06:09:36.213Z,98148.34
2023-08-06T06:12:23.516Z,98169.34
2023-08-06T06:15:10.410Z,98148.94
2023-08-06T06:17:57.646Z,98189.09
2023-08-06T06:20:44.140Z,98178.88
2023-08-06T06:23:30.581Z,98144.84
2023-08-06T06:26:17.228Z,98179.63
2023-08-06T06:29:03.586Z,98185.72
2023-08-06T06:31:50.443Z,98137.44
2023-08-06T06:34:37.092Z,98197.94
2023-08-06T06:37:23.577Z,98195.44
2023-08-06T06:40:10.200Z,98190.50
2023-08-06T06:42:56.730Z,98184.06
2023-08-06T06:45:43.272Z,98176.25
2023-08-06T06:48:32.682Z,98183.72
2023-08-06T06:51:19.268Z,98205.41
2023-08-06T06:54:05.503Z,98183.16
2023-08-06T06:56:51.979Z,98193.97
2023-08-06T06:59:39.312Z,98161.22
2023-08-06T07:02:25.990Z,98153.56
2023-08-06T07:05:12.444Z,98168.91
2023-08-06T07:07:59.019Z,98171.66
2023-08-06T07:10:45.261Z,98186.00
2023-08-06T07:13:31.781Z,98177.31
2023-08-06T07:16:18.046Z,98177.22
2023-08-06T07:19:04.418Z,98168.78
2023-08-06T07:21:50.695Z,98174.63
2023-08-06T07:24:36.959Z,98192.84
2023-08-06T07:27:23.402Z,98188.75
2023-08-06T07:30:09.821Z,98191.88
2023-08-06T07:32:56.153Z,98212.09
2023-08-06T07:35:42.751Z,98181.94
2023-08-06T07:38:30.959Z,98128.38
2023-08-06T07:41:17.496Z,98172.16
2023-08-06T07:44:03.991Z,98208.72
2023-08-06T07:46:50.660Z,98210.16
2023-08-06T07:49:37.235Z,98210.66
2023-08-06T07:52:23.625Z,98180.81
2023-08-06T07:55:09.914Z,98203.94
2023-08-06T07:57:56.675Z,98204.34
2023-08-06T08:00:45.533Z,98202.75
2023-08-06T08:03:32.099Z,98208.31
2023-08-06T08:06:18.732Z,98189.00
2023-08-06T08:09:05.283Z,98169.94
2023-08-06T08:11:52.144Z,98202.25
2023-08-06T08:14:38.471Z,98164.78
2023-08-06T08:17:25.001Z,98205.75
2023-08-06T08:20:11.677Z,98193.25
2023-08-06T08:23:01.787Z,98112.13
2023-08-06T08:25:48.299Z,98186.09
2023-08-06T08:28:34.637Z,98189.53
2023-08-06T08:31:21.285Z,98181.16
2023-08-06T08:34:07.702Z,98188.78
2023-08-06T08:36:53.880Z,98195.38
2023-08-06T08:39:40.122Z,98187.47
2023-08-06T08:42:26.813Z,98201.66
2023-08-06T08:45:15.619Z,98198.38
2023-08-06T08:48:02.447Z,98202.50
2023-08-06T08:50:50.337Z,98175.34
2023-08-06T08:53:40.419Z,98198.94
2023-08-06T08:56:26.789Z,98159.88
2023-08-06T08:59:13.229Z,98199.91
2023-08-06T09:02:02.144Z,98195.69
2023-08-06T09:04:49.793Z,98180.59
2023-08-06T09:07:43.298Z,98193.31
2023-08-06T09:10:29.700Z,98216.72
2023-08-06T09:13:15.916Z,98194.03
2023-08-06T09:16:02.302Z,98212.00
2023-08-06T09:18:48.701Z,98224.84
2023-08-06T09:21:39.296Z,98195.25
2023-08-06T09:24:27.360Z,98196.38
2023-08-06T09:27:15.321Z,98230.53
2023-08-06T09:30:01.810Z,98234.78
2023-08-06T09:32:49.876Z,98210.16
2023-08-06T09:35:36.247Z,98230.13
2023-08-06T09:38:22.642Z,98239.94
2023-08-06T09:41:09.643Z,98219.78
2023-08-06T09:43:56.139Z,98233.06
2023-08-06T09:46:42.224Z,98214.56
2023-08-06T09:49:42.638Z,98239.09
2023-08-06T09:52:29.572Z,98234.50
2023-08-06T09:55:16.232Z,98195.94
2023-08-06T09:58:03.635Z,98237.31
2023-08-06T10:00:50.177Z,98233.25
2023-08-06T10:03:37.902Z,98240.56
2023-08-06T10:06:25.448Z,98191.91
2023-08-06T10:09:12.211Z,98239.53
2023-08-06T10:11:59.140Z,98222.75
2023-08-06T10:14:47.690Z,98232.38
2023-08-06T10:17:49.249Z,98207.09
2023-08-06T10:20:37.365Z,98224.38
2023-08-06T10:23:34.340Z,98204.50
2023-08-06T10:26:20.973Z,98226.75
2023-08-06T10:29:37.503Z,98240.84
2023-08-06T10:32:50.448Z,98248.06
2023-08-06T10:35:37.086Z,98254.25
2023-08-06T10:38:28.770Z,98239.84
2023-08-06T10:41:33.557Z,98256.31
2023-08-06T10:44:22.066Z,98258.34
2023-08-06T10:47:31.484Z,98251.47
2023-08-06T10:50:18.955Z,98269.97
2023-08-06T10:53:07.180Z,98235.41
2023-08-06T10:55:53.446Z,98284.16
2023-08-06T10:58:39.767Z,98281.13
2023-08-06T11:01:30.720Z,98246.97
2023-08-06T11:04:18.203Z,98229.19
2023-08-06T11:07:04.561Z,98265.16
2023-08-06T11:09:52.163Z,98254.09
2023-08-06T11:12:39.323Z,98282.00
2023-08-06T11:15:25.587Z,98281.16
2023-08-06T11:18:12.301Z,98275.19
2023-08-06T11:21:01.407Z,98260.28
2023-08-06T11:23:47.874Z,98257.31
2023-08-06T11:26:34.116Z,98302.28
2023-08-06T11:29:20.787Z,98295.47
2023-08-06T11:32:07.304Z,98269.03
2023-08-06T11:34:56.301Z,98275.56
2023-08-06T11:37:49.084Z,98285.53
2023-08-06T11:40:36.882Z,98296.97
2023-08-06T11:43:23.937Z,98286.84
2023-08-06T11:46:11.617Z,98344.56
2023-08-06T11:49:00.489Z,98313.66
2023-08-06T11:51:47.012Z,98339.09
2023-08-06T11:54:38.086Z,98355.47
2023-08-06T11:57:24.465Z,98361.34
2023-08-06T12:00:15.085Z,98351.91
2023-08-06T12:03:03.187Z,98351.31
2023-08-06T12:05:49.446Z,98359.06
2023-08-06T12:08:35.875Z,98316.50
2023-08-06T12:11:22.707Z,98326.13
2023-08-06T12:14:09.330Z,98333.13
2023-08-06T12:16:55.843Z,98342.41
2023-08-06T12:19:42.483Z,98368.28
2023-08-06T12:22:29.182Z,98376.72
2023-08-06T12:25:15.327Z,98380.84
2023-08-06T12:28:01.958Z,98341.03
2023-08-06T12:30:49.785Z,98386.91
2023-08-06T12:33:36.044Z,98382.41
2023-08-06T12:36:22.843Z,98375.94
2023-08-06T12:39:09.110Z,98366.53
2023-08-06T12:41:59.738Z,98403.19
2023-08-06T12:44:49.806Z,98398.72
2023-08-06T12:47:36.154Z,98374.53
2023-08-06T12:50:22.716Z,98370.13
2023-08-06T12:53:09.937Z,98387.78
2023-08-06T12:55:56.309Z,98418.25
2023-08-06T12:58:43.645Z,98372.81
2023-08-06T13:01:29.808Z,98402.88
2023-08-06T13:04:22.662Z,98387.69
2023-08-06T13:07:10.051Z,98429.97
2023-08-06T13:09:56.327Z,98406.31
2023-08-06T13:12:42.526Z,98421.44
2023-08-06T13:15:28.974Z,98395.84
2023-08-06T13:18:15.329Z,98414.22
2023-08-06T13:21:01.714Z,98399.91
2023-08-06T13:23:48.840Z,98352.19
2023-08-06T13:26:35.435Z,98403.72
2023-08-06T13:29:21.927Z,98439.56
2023-08-06T13:32:08.247Z,98421.53
2023-08-06T13:34:54.701Z,98419.66
2023-08-06T13:37:40.831Z,98405.97
2023-08-06T13:40:27.342Z,98362.69
2023-08-06T13:43:16.882Z,98419.06
2023-08-06T13:46:03.392Z,98423.13
2023-08-06T13:48:52.854Z,98436.34
2023-08-06T13:51:39.510Z,98427.28
2023-08-06T13:54:25.884Z,98435.50
2023-08-06T13:57:11.981Z,98468.06
2023-08-06T13:59:58.432Z,98449.47
2023-08-06T14:02:45.635Z,98449.56
2023-08-06T14:05:31.837Z,98441.34
2023-08-06T14:08:21.331Z,98441.53
2023-08-06T14:11:08.064Z,98444.97
2023-08-06T14:13:54.952Z,98463.94
2023-08-06T14:16:41.335Z,98476.03
2023-08-06T14:19:27.638Z,98480.34
2023-08-06T14:22:13.866Z,98464.47
2023-08-06T14:25:00.634Z,98475.44
2023-08-06T14:27:46.980Z,98491.16
2023-08-06T14:30:34.618Z,98456.81
2023-08-06T14:33:27.311Z,98487.66
2023-08-06T14:36:14.334Z,98449.00
2023-08-06T14:39:01.030Z,98493.16
2023-08-06T14:41:48.270Z,98497.13
2023-08-06T14:44:34.523Z,98479.19
2023-08-06T14:47:21.041Z,98497.56
2023-08-06T14:50:07.397Z,98477.63
2023-08-06T14:52:53.615Z,98491.59
2023-08-06T14:55:39.847Z,98505.47
2023-08-06T14:58:26.168Z,98518.69
2023-08-06T15:01:12.304Z,98514.63
2023-08-06T15:03:59.813Z,98518.34
2023-08-06T15:06:46.383Z,98505.59
2023-08-06T15:09:37.678Z,98525.41
2023-08-06T15:12:32.593Z,98541.88
2023-08-06T15:15:19.288Z,98484.88
2023-08-06T15:18:05.590Z,98502.59
2023-08-06T15:20:52.205Z,98518.22
2023-08-06T15:23:38.938Z,98522.66
2023-08-06T15:26:25.444Z,98540.94
2023-08-06T15:29:12.058Z,98536.78
2023-08-06T15:31:58.563Z,98490.78
2023-08-06T15:34:45.692Z,98493.84
2023-08-06T15:37:32.008Z,98528.72
2023-08-06T15:40:18.282Z,98526.81
2023-08-06T15:43:05.289Z,98521.44
2023-08-06T15:45:51.569Z,98539.94
2023-08-06T15:48:38.100Z,98514.44
2023-08-06T15:51:24.608Z,98540.13
2023-08-06T15:54:11.132Z,98538.78
2023-08-06T15:56:57.579Z,98541.91
2023-08-06T15:59:43.869Z,98564.00
2023-08-06T16:02:30.467Z,98563.84
2023-08-06T16:05:16.825Z,98572.97
2023-08-06T16:08:03.034Z,98581.31
2023-08-06T16:10:49.447Z,98564.66
2023-08-06T16:13:35.884Z,98587.19
2023-08-06T16:16:22.417Z,98585.63
2023-08-06T16:19:08.798Z,98557.28
2023-08-06T16:21:55.230Z,98588.59
2023-08-06T16:24:41.628Z,98574.34
2023-08-06T16:27:28.099Z,98553.88
2023-08-06T16:30:16.979Z,98565.38
2023-08-06T16:33:03.697Z,98598.78
2023-08-06T16:35:50.183Z,98610.22
2023-08-06T16:38:36.561Z,98592.69
2023-08-06T16:41:23.452Z,98631.16
2023-08-06T16:44:13.437Z,98569.53
2023-08-06T16:47:00.456Z,98635.63
2023-08-06T16:49:47.052Z,98627.88
2023-08-06T16:52:33.739Z,98650.91
2023-08-06T16:55:20.260Z,98630.34
2023-08-06T16:58:06.760Z,98603.75
2023-08-06T17:00:53.982Z,98626.00
2023-08-06T17:03:40.403Z,98591.84
2023-08-06T17:06:26.830Z,98658.69
2023-08-06T17:09:13.485Z,98648.56
2023-08-06T17:11:59.966Z,98620.31
2023-08-06T17:14:47.297Z,98673.63
2023-08-06T17:17:33.986Z,98665.78
2023-08-06T17:20:20.364Z,98642.69
2023-08-06T17:23:07.112Z,98649.59
2023-08-06T17:25:54.788Z,98642.69
2023-08-06T17:28:41.308Z,98647.03
2023-08-06T17:31:27.586Z,98670.91
2023-08-06T17:34:14.688Z,98646.88
2023-08-06T17:37:01.332Z,98692.28
2023-08-06T17:39:47.530Z,98707.91
2023-08-06T17:42:34.256Z,98654.72
2023-08-06T17:45:20.583Z,98688.13
2023-08-06T17:48:06.871Z,98661.69
2023-08-06T17:50:53.317Z,98690.81
2023-08-06T17:53:39.756Z,98661.81
2023-08-06T17:56:26.517Z,98689.28
2023-08-06T17:59:13.178Z,98663.66
2023-08-06T18:01:59.874Z,98660.16
2023-08-06T18:04:46.371Z,98685.00
2023-08-06T18:07:32.872Z,98682.38
2023-08-06T18:10:19.153Z,98676.59
2023-08-06T18:13:05.513Z,98702.31
2023-08-06T18:15:54.636Z,98706.59
2023-08-06T18:18:42.124Z,98696.28
2023-08-06T18:21:28.646Z,98687.97
2023-08-06T18:24:15.048Z,98723.25
2023-08-06T18:27:02.902Z,98653.00
2023-08-06T18:29:49.153Z,98703.50
2023-08-06T18:32:35.645Z,98703.63
2023-08-06T18:35:22.086Z,98695.94
2023-08-06T18:38:09.292Z,98708.88
2023-08-06T18:40:59.738Z,98732.13
2023-08-06T18:43:46.223Z,98703.81
2023-08-06T18:46:32.420Z,98721.94
2023-08-06T18:49:18.905Z,98710.03
2023-08-06T18:52:06.990Z,98700.28
2023-08-06T18:54:53.634Z,98652.31
2023-08-06T18:57:39.948Z,98697.81
2023-08-06T19:00:26.375Z,98717.31
2023-08-06T19:03:12.898Z,98690.88
2023-08-06T19:06:05.484Z,98699.31
2023-08-06T19:08:52.081Z,98725.91
2023-08-06T19:11:38.302Z,98719.97
2023-08-06T19:14:24.637Z,98752.28
2023-08-06T19:17:10.793Z,98728.31
2023-08-06T19:19:57.003Z,98673.31
2023-08-06T19:22:43.486Z,98699.09
2023-08-06T19:25:30.487Z,98727.38
2023-08-06T19:28:17.502Z,98746.94
2023-08-06T19:31:03.726Z,98705.06
2023-08-06T19:33:50.279Z,98726.41
2023-08-06T19:36:36.501Z,98733.28
2023-08-06T19:39:22.949Z,98709.31
2023-08-06T19:42:09.213Z,98720.97
2023-08-06T19:44:55.932Z,98716.75
2023-08-06T19:47:42.165Z,98729.63
2023-08-06T19:50:28.685Z,98729.72
2023-08-06T19:53:15.242Z,98724.44
2023-08-06T19:56:03.938Z,98739.19
2023-08-06T19:58:50.843Z,98757.41
2023-08-06T20:01:37.201Z,98747.69
2023-08-06T20:04:23.382Z,98738.56
2023-08-06T20:07:09.862Z,98700.06
2023-08-06T20:09:56.418Z,98752.59
2023-08-06T20:12:42.813Z,98757.88
2023-08-06T20:15:29.287Z,98736.38
2023-08-06T20:18:16.321Z,98780.59
2023-08-06T20:21:03.377Z,98761.19
2023-08-06T20:23:49.882Z,98765.81
2023-08-06T20:26:36.165Z,98758.47
2023-08-06T20:29:22.376Z,98744.78
2023-08-06T20:32:09.094Z,98748.44
2023-08-06T20:34:55.700Z,98718.50
2023-08-06T20:37:42.135Z,98751.28
2023-08-06T20:40:28.457Z,98791.81
2023-08-06T20:43:16.258Z,98728.25
2023-08-06T20:46:05.248Z,98767.13
2023-08-06T20:48:51.689Z,98794.44
2023-08-06T20:51:38.237Z,98784.31
2023-08-06T20:54:24.840Z,98743.22
2023-08-06T20:57:11.044Z,98806.06
2023-08-06T20:59:57.741Z,98777.81
2023-08-06T21:02:43.900Z,98764.97
2023-08-06T21:05:30.659Z,98775.31
2023-08-06T21:08:17.312Z,98740.09
2023-08-06T21:11:05.148Z,98770.91
2023-08-06T21:13:51.614Z,98798.53
2023-08-06T21:16:39.614Z,98728.97
2023-08-06T21:19:26.091Z,98775.50
2023-08-06T21:22:12.311Z,98810.72
2023-08-06T21:24:59.055Z,98763.47
2023-08-06T21:27:48.741Z,98782.50
2023-08-06T21:30:35.189Z,98799.56
2023-08-06T21:33:21.694Z,98798.81
2023-08-06T21:36:09.195Z,98820.28
2023-08-06T21:38:55.818Z,98790.22
2023-08-06T21:41:42.387Z,98801.34
2023-08-06T21:44:28.947Z,98815.03
2023-08-06T21:47:15.589Z,98797.94
2023-08-06T21:50:01.874Z,98813.44
2023-08-06T21:52:49.062Z,98801.47
2023-08-06T21:55:35.322Z,98777.41
2023-08-06T21:58:21.783Z,98816.97
2023-08-06T22:01:10.737Z,98817.03
2023-08-06T22:03:57.156Z,98806.63
2023-08-06T22:06:43.300Z,98834.94
2023-08-06T22:09:29.905Z,98837.59
2023-08-06T22:12:16.450Z,98806.59
2023-08-06T22:15:03.121Z,98828.09
2023-08-06T22:17:49.346Z,98812.63
2023-08-06T22:20:36.184Z,98814.31
2023-08-06T22:23:22.614Z,98800.59
2023-08-06T22:26:08.852Z,98804.13
2023-08-06T22:29:01.270Z,98806.66
2023-08-06T22:31:47.942Z,98764.59
2023-08-06T22:34:35.151Z,98841.06
2023-08-06T22:37:21.489Z,98819.69
2023-08-06T22:40:08.889Z,98802.53
2023-08-06T22:42:55.254Z,98832.59
2023-08-06T22:45:41.707Z,98830.72
2023-08-06T22:48:28.301Z,98835.22
2023-08-06T22:51:15.830Z,98843.81
2023-08-06T22:54:02.188Z,98826.56
2023-08-06T22:56:48.420Z,98788.75
2023-08-06T22:59:35.077Z,98834.38
2023-08-06T23:02:22.478Z,98800.78
2023-08-06T23:05:09.289Z,98850.75
2023-08-06T23:07:55.331Z,98826.66
2023-08-06T23:10:41.800Z,98824.94
2023-08-06T23:13:28.285Z,98848.19
2023-08-06T23:16:15.250Z,98866.31
2023-08-06T23:19:01.526Z,98828.47
2023-08-06T23:21:48.292Z,98858.53
2023-08-06T23:24:34.657Z,98855.19
2023-08-06T23:27:21.551Z,98810.47
2023-08-06T23:30:08.299Z,98850.03
2023-08-06T23:32:54.755Z,98863.75
2023-08-06T23:35:41.118Z,98883.53
2023-08-06T23:38:27.503Z,98882.75
2023-08-06T23:41:13.951Z,98850.88
2023-08-06T23:44:00.211Z,98846.66
2023-08-06T23:46:46.624Z,98849.13
2023-08-06T23:49:33.214Z,98871.53
2023-08-06T23:52:19.771Z,98857.78
2023-08-06T23:55:06.560Z,98839.69
2023-08-06T23:57:53.414Z,98852.56
